Currently 89°F in Lake Elsinore, California, USA
89°F
89°F / 54°F
calm
0.00"
Tuesday, April 23, 2019 11:39 AM PDT

Lake Elsinore, California Weather Summary
Last 36 Hours

Temperature Winds Hourly Humidity Dewpoint
Time Report Norm Report Norm Max Gusts Precip. Rpt. Norm Rpt. Norm Pressure
1,2Tue 11:39 AM  89.2°F  73°F  calm  3 mph  none  0.00"  12%  46%  28°F  50°F  29.97"
Tue 11:00 AM  87.9°F  70°F  calm  2 mph  17 mph  0.00"  14%  50%  30°F  50°F  29.98"
Tue 10:00 AM  78.2°F  66°F  4 mph W  2 mph  9 mph  0.00"  30%  59%  43°F  51°F  29.99"
Tue 09:00 AM  71.9°F  62°F  1 mph W  2 mph  3 mph  0.00"  48%  70%  51°F  52°F  30.00"
Tue 08:00 AM  62.8°F  57°F  calm  1 mph  4 mph  0.00"  67%  82%  51°F  51°F  30.02"
Tue 07:00 AM  53.9°F  51°F  calm  1 mph  3 mph  0.00"  80%  86%  48°F  47°F  30.01"
3Tue 06:45 AM  53.7°F  51°F  calm  1 mph  none  ----  80%  86%  47°F  47°F  30.01"
Tue 06:37 AM  53.7°F  51°F  calm  1 mph  3 mph  0.00"  80%  86%  47°F  47°F  30.01"
Mon 10:00 PM  62.1°F  59°F  calm  2 mph  5 mph  0.00"  65%  74%  50°F  50°F  29.99"
Mon 09:00 PM  63.4°F  61°F  calm  2 mph  11 mph  0.00"  64%  69%  50°F  50°F  29.97"
Mon 08:00 PM  65.2°F  64°F  7 mph E  3 mph  16 mph  0.00"  60%  62%  51°F  50°F  29.96"
Mon 07:00 PM  71.8°F  68°F  4 mph E  5 mph  11 mph  0.00"  49%  54%  51°F  50°F  29.93"
Mon 06:00 PM  83.1°F  73°F  calm  6 mph  11 mph  0.00"  21%  48%  38°F  51°F  29.92"
Mon 05:00 PM  85.5°F  76°F  calm  7 mph  18 mph  0.00"  12%  44%  26°F  51°F  29.91"
Mon 04:00 PM  85.4°F  77°F  7 mph SW  6 mph  21 mph  0.00"  13%  41%  27°F  51°F  29.91"
Mon 03:00 PM  84.6°F  78°F  calm  5 mph  19 mph  0.00"  17%  39%  33°F  50°F  29.93"
Mon 02:00 PM  83.1°F  78°F  12 mph W  4 mph  20 mph  0.00"  17%  39%  32°F  50°F  29.95"
Mon 01:00 PM  81.6°F  76°F  3 mph SW  4 mph  15 mph  0.00"  20%  40%  35°F  50°F  29.97"
Mon 12:00 PM  80.4°F  74°F  4 mph NW  3 mph  16 mph  0.00"  20%  44%  34°F  50°F  29.99"
Mon 11:00 AM  77.7°F  70°F  5 mph SW  2 mph  13 mph  0.00"  25%  50%  37°F  50°F  30.00"
Mon 10:00 AM  65.7°F  66°F  3 mph E  2 mph  6 mph  0.00"  52%  58%  47°F  51°F  30.01"
Mon 09:00 AM  61.5°F  62°F  2 mph E  2 mph  6 mph  0.00"  58%  70%  46°F  51°F  30.02"
Mon 08:00 AM  57.2°F  56°F  1 mph E  1 mph  6 mph  0.00"  69%  82%  47°F  51°F  30.03"
Mon 07:00 AM  50.0°F  51°F  calm  1 mph  none  0.00"  81%  86%  44°F  47°F  30.03"
Mon 06:00 AM  50.1°F  51°F  calm  1 mph  none  0.00"  80%  86%  44°F  46°F  30.01"
Mon 05:00 AM  51.4°F  51°F  calm  calm  3 mph  0.00"  79%  85%  45°F  47°F  30.01"
Mon 04:00 AM  52.8°F  52°F  calm  1 mph  2 mph  0.00"  75%  84%  45°F  47°F  30.00"
Mon 03:00 AM  53.3°F  53°F  calm  1 mph  3 mph  0.00"  75%  83%  45°F  47°F  30.01"
Mon 02:00 AM  55.2°F  53°F  calm  1 mph  4 mph  0.00"  72%  81%  46°F  48°F  30.01"
Mon 01:00 AM  55.7°F  54°F  calm  1 mph  3 mph  0.00"  72%  80%  46°F  48°F  30.03"
Mon 12:00 AM  55.2°F  56°F  1 mph SW  1 mph  7 mph  0.00"  72%  78%  46°F  49°F  30.04"

  1. Current weather data. No green row appears if the current weather data is also the high or low for the current day.
  2. High temperature for the current day.
  3. Low temperature for the current day.

The Lake Elsinore, California weather pages are a service of WeatherCurrents. Lake Elsinore is located south of Corona and north of the Temecula Valley, in southwestern Riverside County, California.
Copyright ©2019  WeatherCurrents. All rights reserved. - Submit questions and comments - Privacy Policy

This page automatically refreshes every 10 minutes.